Time;durP1;ratioP1;P1;durP2;ratioP2;P2;SDS_P1;SDS_P2;PMS_P1;PMS_P2;Temp;Humidity;BMP_temperature;BMP_pressure;BME280_temperature;BME280_humidity;BME280_pressure;Samples;Min_cycle;Max_cycle;Signal;HPM_P1;HPM_P2
2021/06/10 04:00:57;;;;;;;13.37;12.47;;;16.80;99.90;;;;;;5668463;23;20507;-67
2021/06/10 04:03:24;;;;;;;13.77;12.77;;;16.90;99.90;;;;;;4953080;29;20579;-67
2021/06/10 04:05:50;;;;;;;13.50;12.50;;;16.90;99.90;;;;;;4953777;28;20484;-67
2021/06/10 04:08:16;;;;;;;14.17;13.27;;;17.00;99.90;;;;;;4953894;29;20824;-67
2021/06/10 04:10:42;;;;;;;13.87;12.87;;;17.10;99.90;;;;;;4948257;29;20493;-67
2021/06/10 04:13:08;;;;;;;14.00;13.00;;;17.20;99.90;;;;;;4934291;29;20477;-67
2021/06/10 04:15:35;;;;;;;12.27;11.47;;;17.20;99.90;;;;;;4934532;29;20493;-67
2021/06/10 04:18:02;;;;;;;12.30;11.40;;;17.30;99.90;;;;;;4934820;29;20501;-67
2021/06/10 04:20:28;;;;;;;12.50;11.70;;;17.50;99.90;;;;;;4934759;29;20580;-67
2021/06/10 04:22:55;;;;;;;11.30;10.67;;;17.70;99.90;;;;;;4934480;29;20750;-67
2021/06/10 04:25:21;;;;;;;12.30;11.50;;;18.20;99.90;;;;;;4933985;29;20461;-67
2021/06/10 04:27:48;;;;;;;12.60;11.70;;;18.70;99.90;;;;;;4934612;29;20928;-69
2021/06/10 04:30:17;;;;;;;12.93;12.10;;;19.10;99.90;;;;;;4934085;29;20472;-69
2021/06/10 04:32:45;;;;;;;12.10;11.30;;;19.40;99.90;;;;;;4934698;29;20469;-69
2021/06/10 04:35:14;;;;;;;15.00;13.90;;;19.60;99.90;;;;;;4937021;29;20497;-69
2021/06/10 04:37:41;;;;;;;13.10;12.30;;;20.00;99.90;;;;;;4938481;29;20525;-69
2021/06/10 04:40:08;;;;;;;15.33;14.33;;;20.30;99.90;;;;;;4937962;29;20497;-69
2021/06/10 04:42:34;;;;;;;16.17;14.97;;;20.60;99.90;;;;;;4938346;29;20529;-69
2021/06/10 04:45:01;;;;;;;16.67;15.47;;;20.90;99.90;;;;;;4937716;29;20576;-69
2021/06/10 04:47:27;;;;;;;16.53;15.33;;;21.20;99.90;;;;;;4938058;29;20473;-69
2021/06/10 04:49:53;;;;;;;16.70;15.60;;;21.60;99.90;;;;;;4937882;29;20808;-69
2021/06/10 04:52:20;;;;;;;17.37;16.17;;;22.00;99.90;;;;;;4937750;29;20490;-69
2021/06/10 04:54:47;;;;;;;16.37;15.20;;;22.20;99.90;;;;;;4937606;29;20515;-68
2021/06/10 04:57:13;;;;;;;17.37;15.90;;;22.40;99.90;;;;;;4938264;29;20506;-69
2021/06/10 04:59:39;;;;;;;16.63;15.43;;;22.60;99.90;;;;;;4937525;29;20469;-68
2021/06/10 05:02:05;;;;;;;16.80;15.60;;;22.70;99.90;;;;;;4937672;29;20532;-69
2021/06/10 05:04:31;;;;;;;17.57;16.23;;;22.60;99.90;;;;;;4938063;29;20457;-68
2021/06/10 05:06:58;;;;;;;16.17;15.07;;;22.50;99.90;;;;;;4937665;29;20524;-68
2021/06/10 05:09:25;;;;;;;15.10;14.20;;;22.50;99.90;;;;;;4937367;29;20469;-69
2021/06/10 05:11:52;;;;;;;15.93;14.93;;;22.70;99.90;;;;;;4937657;29;20496;-69
2021/06/10 05:14:19;;;;;;;15.90;14.60;;;22.70;99.90;;;;;;4936788;29;20516;-69
2021/06/10 05:16:47;;;;;;;15.57;14.57;;;22.80;99.90;;;;;;4937502;29;20539;-69
2021/06/10 05:19:13;;;;;;;14.53;13.37;;;22.70;99.90;;;;;;4937273;29;20556;-68
2021/06/10 05:21:40;;;;;;;13.90;13.03;;;22.70;99.90;;;;;;4937107;29;20485;-69
2021/06/10 05:24:08;;;;;;;14.70;13.70;;;22.60;99.90;;;;;;4937009;29;20473;-69
2021/06/10 05:26:35;;;;;;;12.67;11.80;;;22.60;99.90;;;;;;4937364;29;20504;-69
2021/06/10 05:29:02;;;;;;;12.93;12.13;;;22.50;99.90;;;;;;4936919;29;20473;-68
2021/06/10 05:31:28;;;;;;;12.00;11.30;;;22.40;99.90;;;;;;4937207;29;20501;-69
2021/06/10 05:33:54;;;;;;;11.43;10.83;;;22.50;99.90;;;;;;4936741;29;20470;-68
2021/06/10 05:36:21;;;;;;;11.10;10.50;;;22.40;99.90;;;;;;4937109;29;20484;-69
2021/06/10 05:38:47;;;;;;;12.90;12.10;;;22.50;99.90;;;;;;4937283;29;20465;-69
2021/06/10 05:41:13;;;;;;;13.07;12.07;;;22.30;99.90;;;;;;4936899;29;20489;-69
2021/06/10 05:43:41;;;;;;;12.87;12.07;;;22.10;99.90;;;;;;4936720;29;20580;-69
2021/06/10 05:46:07;;;;;;;12.37;11.60;;;22.30;99.90;;;;;;4937216;29;20878;-68
2021/06/10 05:48:33;;;;;;;12.63;11.83;;;22.30;99.90;;;;;;4937067;29;20501;-68
2021/06/10 05:50:59;;;;;;;13.37;12.47;;;22.50;99.90;;;;;;4937306;29;20821;-69
2021/06/10 05:53:25;;;;;;;12.70;11.80;;;22.50;99.90;;;;;;4937073;29;20462;-69
2021/06/10 05:55:52;;;;;;;11.17;10.57;;;23.00;99.90;;;;;;4936725;29;20485;-69
2021/06/10 05:58:18;;;;;;;11.40;10.60;;;23.20;99.90;;;;;;4936643;29;20928;-69
2021/06/10 06:00:46;;;;;;;12.30;11.30;;;23.20;99.90;;;;;;4936868;29;20501;-68
2021/06/10 06:03:12;;;;;;;11.47;10.60;;;23.50;99.90;;;;;;4936617;29;20477;-68
2021/06/10 06:05:39;;;;;;;12.87;12.03;;;23.50;99.90;;;;;;4937188;29;20457;-68
2021/06/10 06:08:06;;;;;;;13.03;11.83;;;23.60;99.90;;;;;;4937243;29;20838;-68
2021/06/10 06:10:33;;;;;;;11.40;10.70;;;23.70;99.90;;;;;;4936532;29;20500;-67
2021/06/10 06:13:01;;;;;;;12.40;11.60;;;23.90;99.90;;;;;;4936222;29;20496;-67
2021/06/10 06:15:28;;;;;;;11.67;11.03;;;24.20;99.90;;;;;;4936415;29;20487;-68
2021/06/10 06:17:55;;;;;;;10.80;10.10;;;24.50;99.90;;;;;;4936587;29;20824;-68
2021/06/10 06:20:23;;;;;;;11.47;10.40;;;24.90;99.90;;;;;;4936861;29;20480;-68
2021/06/10 06:22:49;;;;;;;11.80;11.00;;;24.90;99.90;;;;;;4936380;29;20484;-68
2021/06/10 06:25:17;;;;;;;11.23;10.57;;;25.00;99.90;;;;;;4935931;29;20477;-68
2021/06/10 06:27:43;;;;;;;10.63;9.93;;;25.10;99.90;;;;;;4936613;29;20467;-68
2021/06/10 06:30:12;;;;;;;10.17;9.43;;;25.50;99.90;;;;;;4936438;29;20923;-67
2021/06/10 06:32:38;;;;;;;9.60;9.10;;;25.80;99.90;;;;;;4936671;29;20810;-68
2021/06/10 06:35:08;;;;;;;10.03;9.37;;;26.20;99.90;;;;;;4936194;29;20906;-68
2021/06/10 06:37:35;;;;;;;9.87;9.27;;;26.50;99.90;;;;;;4936315;29;20485;-68
2021/06/10 06:40:01;;;;;;;9.30;8.70;;;26.80;99.90;;;;;;4935922;29;20473;-68
2021/06/10 06:42:27;;;;;;;9.00;8.60;;;27.00;99.00;;;;;;4935995;29;20490;-68
2021/06/10 06:44:53;;;;;;;9.10;8.50;;;27.30;98.10;;;;;;4935313;29;20936;-69
2021/06/10 06:47:20;;;;;;;9.30;8.80;;;27.20;97.60;;;;;;4936330;29;20523;-68
2021/06/10 06:49:46;;;;;;;8.93;8.53;;;27.60;97.70;;;;;;4935602;29;20487;-68
2021/06/10 06:52:13;;;;;;;8.63;8.23;;;27.80;96.40;;;;;;4935564;29;20499;-68
2021/06/10 06:54:39;;;;;;;8.67;8.27;;;27.50;95.40;;;;;;4935354;29;20487;-68
2021/06/10 06:57:06;;;;;;;10.70;9.93;;;27.10;96.60;;;;;;4935365;29;20480;-68
2021/06/10 06:59:33;;;;;;;9.57;8.90;;;27.50;95.90;;;;;;4935497;29;20468;-68
2021/06/10 07:01:59;;;;;;;9.30;8.73;;;27.80;96.10;;;;;;4935588;29;20500;-68
2021/06/10 07:04:26;;;;;;;9.83;9.23;;;28.10;95.80;;;;;;4935438;29;20461;-68
2021/06/10 07:06:52;;;;;;;10.03;9.33;;;28.50;94.30;;;;;;4935893;29;20478;-68
2021/06/10 07:09:20;;;;;;;10.33;9.77;;;28.30;92.90;;;;;;4935012;29;20933;-68
2021/06/10 07:11:46;;;;;;;10.50;9.70;;;28.50;92.60;;;;;;4935805;29;20493;-68
2021/06/10 07:14:13;;;;;;;10.70;10.00;;;28.40;93.20;;;;;;4934642;29;20567;-68
2021/06/10 07:16:41;;;;;;;10.13;9.53;;;28.60;92.70;;;;;;4935782;29;20465;-68
2021/06/10 07:19:07;;;;;;;10.73;9.93;;;29.00;91.90;;;;;;4935365;29;20958;-67
2021/06/10 07:21:43;;;;;;;10.50;9.90;;;28.50;90.90;;;;;;4935454;29;20514;-69
2021/06/10 07:24:10;;;;;;;10.53;9.93;;;28.50;91.70;;;;;;4934420;29;20475;-69
2021/06/10 07:26:38;;;;;;;11.30;10.70;;;28.40;91.70;;;;;;4935336;29;20472;-69
2021/06/10 07:29:04;;;;;;;12.70;11.70;;;28.30;90.40;;;;;;4934846;29;20472;-68
2021/06/10 07:31:31;;;;;;;11.53;10.90;;;27.80;90.80;;;;;;4935428;29;20492;-69
2021/06/10 07:33:57;;;;;;;11.57;10.80;;;28.20;91.80;;;;;;4934897;29;20935;-69
2021/06/10 07:36:24;;;;;;;11.30;10.70;;;28.50;90.70;;;;;;4934885;29;20493;-70
2021/06/10 07:38:51;;;;;;;11.93;11.30;;;28.90;90.10;;;;;;4935151;29;20471;-70
2021/06/10 07:41:17;;;;;;;11.67;10.87;;;29.10;89.10;;;;;;4934414;29;20491;-70
2021/06/10 07:43:44;;;;;;;11.10;10.30;;;29.20;89.30;;;;;;4934679;29;20607;-70
2021/06/10 07:46:11;;;;;;;10.60;10.00;;;29.50;87.80;;;;;;4935184;29;20826;-70
2021/06/10 07:48:37;;;;;;;11.03;10.33;;;29.50;87.50;;;;;;4935126;29;20481;-70
2021/06/10 07:51:06;;;;;;;10.50;9.90;;;29.90;85.70;;;;;;4934977;29;20492;-70
2021/06/10 07:53:32;;;;;;;9.90;9.40;;;30.10;84.00;;;;;;4934558;29;20470;-69
2021/06/10 07:55:59;;;;;;;9.27;8.67;;;30.20;79.70;;;;;;4934646;29;20493;-70
2021/06/10 07:58:26;;;;;;;8.53;8.03;;;30.20;80.90;;;;;;4935069;29;20476;-70
2021/06/10 08:00:53;;;;;;;9.27;8.60;;;30.30;79.50;;;;;;4934614;29;20529;-70
2021/06/10 08:03:20;;;;;;;9.40;8.80;;;30.20;78.00;;;;;;4934648;29;20827;-70
2021/06/10 08:05:47;;;;;;;8.13;7.73;;;30.30;76.40;;;;;;4934896;29;20497;-71
2021/06/10 08:08:13;;;;;;;8.50;8.00;;;30.10;76.00;;;;;;4934700;29;20470;-70
2021/06/10 08:10:40;;;;;;;7.17;6.60;;;29.90;73.90;;;;;;4938005;29;21020;-70
2021/06/10 08:13:08;;;;;;;5.57;5.27;;;29.80;74.40;;;;;;4938404;29;20473;-70
2021/06/10 08:15:34;;;;;;;5.33;4.73;;;30.00;71.80;;;;;;4939805;29;20489;-72
2021/06/10 08:18:02;;;;;;;6.43;6.03;;;29.90;73.30;;;;;;4939281;29;20492;-68
2021/06/10 08:20:30;;;;;;;6.47;6.13;;;30.20;75.40;;;;;;4938577;29;20489;-69
2021/06/10 08:22:59;;;;;;;6.03;5.80;;;30.20;72.10;;;;;;4938053;29;20561;-70
2021/06/10 08:25:26;;;;;;;5.73;5.33;;;30.40;70.20;;;;;;4938283;29;20484;-67
2021/06/10 08:27:53;;;;;;;7.20;6.70;;;30.40;69.40;;;;;;4938495;29;20827;-67
2021/06/10 08:30:20;;;;;;;6.97;6.57;;;30.30;68.90;;;;;;4938129;29;20938;-68
2021/06/10 08:32:46;;;;;;;8.03;7.20;;;30.20;70.20;;;;;;4938803;29;20528;-67
2021/06/10 08:35:14;;;;;;;7.60;7.30;;;30.00;72.80;;;;;;4938133;29;20496;-69
2021/06/10 08:37:41;;;;;;;7.37;7.07;;;30.00;74.00;;;;;;4939109;29;20469;-70
2021/06/10 08:40:08;;;;;;;7.90;7.50;;;29.90;73.90;;;;;;4937877;29;20845;-68
2021/06/10 08:42:36;;;;;;;8.90;8.40;;;29.70;74.80;;;;;;4937823;29;21025;-69
2021/06/10 08:45:04;;;;;;;8.23;7.83;;;29.60;74.60;;;;;;4937262;29;20472;-69
2021/06/10 08:47:32;;;;;;;7.63;7.30;;;29.00;74.50;;;;;;4938331;29;20488;-69
2021/06/10 08:50:00;;;;;;;7.23;6.87;;;29.00;76.40;;;;;;4938199;29;20553;-70
2021/06/10 08:52:28;;;;;;;9.43;8.90;;;29.00;77.20;;;;;;4937756;29;20576;-70
2021/06/10 08:54:54;;;;;;;7.77;7.30;;;29.10;73.50;;;;;;4937601;29;20488;-70
2021/06/10 08:57:20;;;;;;;8.90;8.40;;;29.00;74.30;;;;;;4938039;29;20483;-70
2021/06/10 08:59:47;;;;;;;10.40;9.50;;;29.00;74.60;;;;;;4937272;29;20469;-69
2021/06/10 09:02:13;;;;;;;8.00;7.50;;;29.00;74.50;;;;;;4937682;29;20527;-70
2021/06/10 09:04:39;;;;;;;9.23;8.63;;;29.00;75.10;;;;;;4938009;29;20469;-70
2021/06/10 09:07:07;;;;;;;11.77;10.97;;;29.10;73.30;;;;;;4938223;29;20671;-70
2021/06/10 09:09:37;;;;;;;9.53;8.93;;;28.70;73.30;;;;;;4937705;29;20563;-69
2021/06/10 09:12:06;;;;;;;9.07;8.67;;;28.80;74.80;;;;;;4937703;29;20496;-69
2021/06/10 09:14:52;;;;;;;10.10;9.30;;;28.80;75.30;;;;;;4937399;29;20490;-70
2021/06/10 09:17:32;;;;;;;9.97;9.27;;;28.80;74.30;;;;;;4938047;29;20495;-70
2021/06/10 09:19:59;;;;;;;10.60;9.53;;;28.60;74.00;;;;;;4938858;29;20480;-71
2021/06/10 09:22:27;;;;;;;9.27;8.77;;;28.50;76.40;;;;;;4938269;29;20508;-70
2021/06/10 09:25:06;;;;;;;10.60;9.80;;;28.10;77.60;;;;;;4937166;29;20842;-70
2021/06/10 09:27:32;;;;;;;11.13;10.43;;;28.10;78.70;;;;;;4937821;29;20477;-70
2021/06/10 09:29:59;;;;;;;10.20;9.60;;;27.90;79.10;;;;;;4936867;29;20467;-70
2021/06/10 09:32:27;;;;;;;10.37;9.73;;;28.00;81.20;;;;;;4937352;29;20529;-71
2021/06/10 09:34:57;;;;;;;9.80;9.30;;;27.80;81.10;;;;;;4937162;29;20492;-70
2021/06/10 09:37:31;;;;;;;8.87;8.10;;;27.60;80.10;;;;;;4937850;29;20530;-70
2021/06/10 09:39:59;;;;;;;10.73;9.93;;;27.60;81.90;;;;;;4936689;29;20466;-70
2021/06/10 09:42:29;;;;;;;11.53;10.83;;;27.60;82.50;;;;;;4937376;29;20493;-70
2021/06/10 09:44:58;;;;;;;10.97;10.37;;;27.50;83.00;;;;;;4936909;29;20851;-69
2021/06/10 09:47:29;;;;;;;11.53;10.73;;;27.50;82.90;;;;;;4937601;29;20531;-69
2021/06/10 09:49:55;;;;;;;12.00;11.20;;;27.30;82.60;;;;;;4937314;29;20479;-70
2021/06/10 09:52:22;;;;;;;11.80;11.10;;;27.20;83.10;;;;;;4938032;29;20495;-67
2021/06/10 09:54:51;;;;;;;11.30;10.60;;;27.30;83.30;;;;;;4936634;29;20521;-67
2021/06/10 09:57:17;;;;;;;10.87;10.27;;;27.20;84.10;;;;;;4937138;29;20495;-66
2021/06/10 09:59:51;;;;;;;11.53;10.73;;;27.30;83.80;;;;;;4936367;29;20473;-68
2021/06/10 10:02:19;;;;;;;10.07;9.57;;;27.30;83.20;;;;;;4936750;29;20514;-67
2021/06/10 10:05:03;;;;;;;11.70;11.00;;;27.30;84.40;;;;;;4936820;29;20444;-68
2021/06/10 10:07:31;;;;;;;10.73;10.13;;;27.10;83.00;;;;;;4936963;29;20461;-67
2021/06/10 10:09:59;;;;;;;13.00;12.10;;;27.10;83.90;;;;;;4935886;29;20492;-67
2021/06/10 10:12:26;;;;;;;11.57;10.70;;;27.00;83.40;;;;;;4936565;29;20518;-67
2021/06/10 10:14:56;;;;;;;11.33;10.67;;;26.90;84.40;;;;;;4936066;29;20651;-67
2021/06/10 10:17:23;;;;;;;11.33;10.43;;;26.60;84.80;;;;;;4936486;29;20983;-67
2021/06/10 10:19:50;;;;;;;11.27;10.47;;;26.60;85.70;;;;;;4936388;29;20474;-67
2021/06/10 10:22:16;;;;;;;9.93;9.17;;;26.60;85.50;;;;;;4936029;29;20576;-67
2021/06/10 10:24:42;;;;;;;10.10;9.30;;;26.70;87.40;;;;;;4935805;29;20468;-67
2021/06/10 10:27:12;;;;;;;10.40;9.80;;;26.70;87.90;;;;;;4936272;29;20469;-67
2021/06/10 10:29:40;;;;;;;11.37;10.57;;;26.80;87.70;;;;;;4935657;29;20465;-67
2021/06/10 10:32:10;;;;;;;10.60;9.80;;;26.80;86.60;;;;;;4935088;29;20521;-67
2021/06/10 10:34:38;;;;;;;12.43;11.60;;;26.90;88.00;;;;;;4936027;29;20473;-69
2021/06/10 10:37:21;;;;;;;11.70;10.80;;;26.80;87.00;;;;;;4936120;29;20475;-70
2021/06/10 10:39:48;;;;;;;12.10;11.10;;;26.60;87.90;;;;;;4935701;29;20496;-69
2021/06/10 10:42:29;;;;;;;13.53;12.57;;;26.50;88.20;;;;;;4936062;29;20846;-69
2021/06/10 10:45:20;;;;;;;15.23;14.13;;;26.50;88.10;;;;;;4935609;29;20472;-70
2021/06/10 10:47:57;;;;;;;13.20;11.80;;;26.50;88.30;;;;;;4936246;29;20469;-70
2021/06/10 10:50:36;;;;;;;11.67;10.90;;;26.50;89.80;;;;;;4935749;29;20473;-70
2021/06/10 10:53:03;;;;;;;13.70;12.60;;;26.60;90.00;;;;;;4935503;29;20492;-69
2021/06/10 10:55:31;;;;;;;11.67;10.87;;;26.60;89.40;;;;;;4935089;29;21079;-70
2021/06/10 10:58:02;;;;;;;12.53;11.63;;;26.60;89.50;;;;;;4935654;29;20534;-70
2021/06/10 11:00:50;;;;;;;12.13;11.23;;;26.70;88.10;;;;;;4935593;29;20485;-70
2021/06/10 11:03:41;;;;;;;13.53;12.63;;;26.70;88.10;;;;;;4935307;29;20630;-69
2021/06/10 11:06:35;;;;;;;12.40;11.53;;;26.60;87.50;;;;;;4929784;29;20577;-70
2021/06/10 11:09:11;;;;;;;11.27;10.47;;;26.70;88.70;;;;;;4935587;29;20970;-69
2021/06/10 11:11:51;;;;;;;11.30;10.50;;;26.40;90.30;;;;;;4935459;29;20500;-69
2021/06/10 11:14:38;;;;;;;11.03;10.40;;;26.50;89.60;;;;;;4934955;29;20536;-69
2021/06/10 11:17:29;;;;;;;9.20;8.70;;;26.60;89.20;;;;;;4935544;29;20469;-68
2021/06/10 11:20:03;;;;;;;10.33;9.73;;;26.90;90.20;;;;;;4925881;29;20827;-69
2021/06/10 11:22:37;;;;;;;11.13;10.53;;;27.10;89.20;;;;;;4935497;29;20490;-69
2021/06/10 11:25:06;;;;;;;10.50;9.90;;;27.30;87.80;;;;;;4935116;29;20483;-69
2021/06/10 11:27:38;;;;;;;10.63;10.03;;;27.30;87.70;;;;;;4935394;29;20583;-67
2021/06/10 11:30:13;;;;;;;11.50;10.70;;;27.30;88.50;;;;;;4934895;29;20470;-67
2021/06/10 11:32:59;;;;;;;9.40;8.80;;;27.20;88.90;;;;;;4935573;29;20473;-67
2021/06/10 11:35:33;;;;;;;10.40;9.80;;;27.30;89.90;;;;;;4935333;29;21251;-67
2021/06/10 11:38:02;;;;;;;11.10;10.17;;;27.60;88.20;;;;;;4935379;29;20499;-69
2021/06/10 11:40:28;;;;;;;11.43;10.63;;;27.80;86.00;;;;;;4935022;29;20498;-66
2021/06/10 11:42:55;;;;;;;10.77;10.20;;;28.10;85.80;;;;;;4934938;29;20987;-67
2021/06/10 11:45:26;;;;;;;11.70;10.90;;;28.10;86.80;;;;;;4935136;29;20467;-67
2021/06/10 11:47:52;;;;;;;11.40;10.50;;;28.00;87.10;;;;;;4935597;29;20516;-67
2021/06/10 11:50:24;;;;;;;10.07;9.43;;;27.90;86.90;;;;;;4934708;29;20484;-68
2021/06/10 11:52:53;;;;;;;10.63;9.90;;;27.80;88.60;;;;;;4934969;29;20472;-67
2021/06/10 11:55:20;;;;;;;9.40;8.90;;;27.90;89.00;;;;;;4934425;29;20544;-68
2021/06/10 11:57:53;;;;;;;10.23;9.73;;;27.90;89.10;;;;;;4935112;29;20504;-67
2021/06/10 12:00:27;;;;;;;11.13;10.33;;;28.00;87.80;;;;;;4934399;29;20489;-67
2021/06/10 12:02:57;;;;;;;12.10;11.30;;;28.20;86.30;;;;;;4935242;29;20468;-67
2021/06/10 12:05:25;;;;;;;10.97;10.03;;;28.00;86.20;;;;;;4934922;29;20472;-68
2021/06/10 12:08:12;;;;;;;11.90;11.20;;;27.80;86.50;;;;;;4934985;29;20479;-68
2021/06/10 12:10:39;;;;;;;11.40;10.80;;;27.70;86.10;;;;;;4934512;29;20492;-68
2021/06/10 12:13:06;;;;;;;10.53;9.93;;;27.60;86.00;;;;;;4934338;29;20865;-68
2021/06/10 12:15:45;;;;;;;12.63;11.87;;;27.70;88.00;;;;;;4934825;29;20567;-67
2021/06/10 12:18:14;;;;;;;9.30;8.70;;;27.90;86.30;;;;;;4934551;29;20524;-67
2021/06/10 12:20:42;;;;;;;9.47;8.83;;;28.10;87.30;;;;;;4935459;29;20494;-67
2021/06/10 12:23:16;;;;;;;9.87;9.10;;;28.20;85.70;;;;;;4935649;29;20939;-68
2021/06/10 12:25:52;;;;;;;10.10;9.50;;;28.30;84.80;;;;;;4934629;29;20497;-67
2021/06/10 12:28:36;;;;;;;11.00;10.40;;;28.30;84.10;;;;;;4934831;29;20553;-66
2021/06/10 12:31:05;;;;;;;9.37;8.87;;;28.00;82.90;;;;;;4934825;29;20505;-66
2021/06/10 12:33:33;;;;;;;8.83;8.43;;;28.10;85.10;;;;;;4934730;29;20984;-67
2021/06/10 12:35:59;;;;;;;9.27;8.77;;;28.10;84.50;;;;;;4934777;29;20526;-67
2021/06/10 12:38:32;;;;;;;8.80;8.50;;;28.10;82.00;;;;;;4934599;29;20535;-67
2021/06/10 12:41:22;;;;;;;7.90;7.50;;;28.00;84.20;;;;;;4934324;29;20828;-67
2021/06/10 12:43:51;;;;;;;9.33;8.83;;;27.90;86.00;;;;;;4931634;29;20598;-67
2021/06/10 12:46:17;;;;;;;10.40;9.90;;;27.90;85.40;;;;;;4934517;29;20940;-67
2021/06/10 12:48:54;;;;;;;9.87;9.37;;;27.80;83.60;;;;;;4934915;29;20466;-67
2021/06/10 12:51:23;;;;;;;9.17;8.70;;;27.90;83.60;;;;;;4934531;29;20486;-67
2021/06/10 12:53:55;;;;;;;9.70;8.90;;;27.80;84.00;;;;;;4934482;29;20924;-68
2021/06/10 12:56:50;;;;;;;10.90;10.30;;;27.80;84.60;;;;;;4937013;29;20493;-68
2021/06/10 12:59:35;;;;;;;9.67;9.03;;;27.90;84.20;;;;;;4937433;29;20552;-69
2021/06/10 13:02:10;;;;;;;9.53;9.00;;;27.90;84.10;;;;;;4937937;29;20493;-69
2021/06/10 13:04:39;;;;;;;10.13;9.50;;;27.90;84.70;;;;;;4938026;29;20461;-69
2021/06/10 13:07:07;;;;;;;10.80;10.20;;;27.70;84.60;;;;;;4938101;29;20568;-69
2021/06/10 13:09:35;;;;;;;10.40;9.90;;;27.60;86.10;;;;;;4937579;29;20524;-69
2021/06/10 13:12:16;;;;;;;11.60;10.80;;;27.80;85.90;;;;;;4937727;29;21072;-69
2021/06/10 13:14:43;;;;;;;12.83;12.07;;;27.80;85.40;;;;;;4937240;29;20839;-69
2021/06/10 13:17:09;;;;;;;12.00;11.27;;;27.80;86.00;;;;;;4938217;29;20501;-69
2021/06/10 13:19:44;;;;;;;12.30;11.47;;;27.80;86.60;;;;;;4938405;29;20469;-68
2021/06/10 13:22:12;;;;;;;10.40;9.80;;;27.90;86.60;;;;;;4937568;29;20496;-68
2021/06/10 13:24:46;;;;;;;13.33;12.43;;;28.00;86.80;;;;;;4937176;29;20518;-68
2021/06/10 13:27:21;;;;;;;12.43;11.67;;;28.10;84.60;;;;;;4937526;29;20465;-69
2021/06/10 13:29:48;;;;;;;12.63;11.83;;;28.00;85.50;;;;;;4937069;29;20553;-68
2021/06/10 13:32:26;;;;;;;13.47;12.47;;;27.90;85.00;;;;;;4937149;29;20501;-69
2021/06/10 13:37:36;;;;;;;8.40;7.90;;;28.00;86.50;;;;;;4937331;29;20489;-70
2021/06/10 13:40:04;;;;;;;8.43;7.97;;;28.10;82.80;;;;;;4936886;29;20466;-70
2021/06/10 13:42:32;;;;;;;7.40;7.07;;;28.20;78.40;;;;;;4936783;29;20478;-70
2021/06/10 13:44:58;;;;;;;7.77;7.47;;;28.00;78.10;;;;;;4937087;29;20466;-68
2021/06/10 13:47:25;;;;;;;9.10;8.57;;;27.70;75.60;;;;;;4937001;29;20488;-70
2021/06/10 13:49:51;;;;;;;10.03;9.40;;;27.60;79.30;;;;;;4936781;29;20458;-70
2021/06/10 13:52:18;;;;;;;9.17;8.77;;;27.40;82.40;;;;;;4936747;29;20485;-69
2021/06/10 13:54:44;;;;;;;9.43;8.90;;;27.40;83.30;;;;;;4936654;29;20469;-69
2021/06/10 13:57:12;;;;;;;8.33;7.93;;;27.60;84.90;;;;;;4936950;29;20854;-69
2021/06/10 13:59:39;;;;;;;8.80;8.30;;;27.70;83.10;;;;;;4936248;29;20473;-70
2021/06/10 14:02:05;;;;;;;7.47;7.17;;;27.70;79.90;;;;;;4936502;29;20587;-70
2021/06/10 14:04:32;;;;;;;8.17;7.80;;;27.60;79.60;;;;;;4936490;29;20473;-70
2021/06/10 14:06:59;;;;;;;7.97;7.57;;;27.60;79.60;;;;;;4936557;29;20461;-70
2021/06/10 14:09:25;;;;;;;7.60;7.20;;;27.70;79.10;;;;;;4935819;29;20968;-70
2021/06/10 14:11:51;;;;;;;7.87;7.40;;;27.60;77.90;;;;;;4936312;29;20504;-70
2021/06/10 14:14:19;;;;;;;8.03;7.43;;;27.30;79.20;;;;;;4935711;29;20577;-71
2021/06/10 14:16:46;;;;;;;7.90;7.47;;;27.40;79.90;;;;;;4936849;29;20485;-69
2021/06/10 14:19:15;;;;;;;7.63;7.23;;;27.50;78.10;;;;;;4936092;29;20564;-70
2021/06/10 14:21:42;;;;;;;6.87;6.57;;;27.80;79.70;;;;;;4936461;29;20492;-70
2021/06/10 14:24:08;;;;;;;7.00;6.70;;;27.80;77.80;;;;;;4936200;29;20469;-70
2021/06/10 14:26:34;;;;;;;6.90;6.63;;;27.80;78.60;;;;;;4936395;29;20465;-69
2021/06/10 14:29:05;;;;;;;7.20;6.93;;;28.00;78.60;;;;;;4935844;29;20481;-69
2021/06/10 14:34:20;;;;;;;7.13;6.83;;;28.00;76.00;;;;;;4919938;29;20464;-68
2021/06/10 14:36:49;;;;;;;7.17;6.70;;;28.00;75.50;;;;;;4937012;29;20497;-69
2021/06/10 14:39:15;;;;;;;7.27;6.97;;;28.10;74.60;;;;;;4936596;29;20891;-69
2021/06/10 14:41:41;;;;;;;7.20;6.67;;;28.00;74.50;;;;;;4937868;29;20505;-69
2021/06/10 14:44:08;;;;;;;6.17;5.97;;;28.10;74.80;;;;;;4936007;29;20882;-68
2021/06/10 14:46:35;;;;;;;6.50;6.27;;;28.20;72.60;;;;;;4936567;29;20465;-69
2021/06/10 14:49:03;;;;;;;6.27;6.00;;;28.20;72.80;;;;;;4936245;29;20803;-69
2021/06/10 14:51:30;;;;;;;6.47;6.17;;;28.30;72.40;;;;;;4936165;29;20517;-69
2021/06/10 14:53:56;;;;;;;6.80;6.50;;;28.40;72.80;;;;;;4935903;29;20465;-69
2021/06/10 14:56:22;;;;;;;6.93;6.63;;;28.40;72.70;;;;;;4935404;29;20497;-69
2021/06/10 14:58:48;;;;;;;6.27;6.00;;;28.30;72.30;;;;;;4935511;29;20478;-69
2021/06/10 15:01:15;;;;;;;6.17;5.90;;;28.30;72.40;;;;;;4935855;29;20522;-69
2021/06/10 15:03:42;;;;;;;6.10;5.70;;;28.40;71.60;;;;;;4936095;29;20470;-69
2021/06/10 15:06:08;;;;;;;6.50;6.10;;;28.50;72.00;;;;;;4936075;29;20469;-69
2021/06/10 15:08:35;;;;;;;6.87;6.47;;;28.50;71.20;;;;;;4935754;29;20871;-69
2021/06/10 15:11:01;;;;;;;6.83;6.43;;;28.70;71.20;;;;;;4935305;29;20490;-69
2021/06/10 15:13:27;;;;;;;6.97;6.67;;;28.70;70.80;;;;;;4934996;29;20472;-68
2021/06/10 15:15:54;;;;;;;6.80;6.50;;;28.70;71.50;;;;;;4936050;29;20496;-69
2021/06/10 15:18:20;;;;;;;7.17;6.87;;;28.60;72.20;;;;;;4935325;29;20548;-69
2021/06/10 15:20:48;;;;;;;8.47;7.90;;;28.60;73.70;;;;;;4935695;29;20501;-69
2021/06/10 15:23:14;;;;;;;7.97;7.47;;;28.70;74.60;;;;;;4935408;29;20518;-69
2021/06/10 15:25:40;;;;;;;8.00;7.70;;;28.70;75.60;;;;;;4935012;29;20465;-68
2021/06/10 15:28:06;;;;;;;7.90;7.50;;;28.80;76.70;;;;;;4935361;29;20474;-68
2021/06/10 15:30:32;;;;;;;7.33;7.03;;;28.90;77.10;;;;;;4935471;29;20486;-70
2021/06/10 15:32:59;;;;;;;7.60;7.27;;;28.90;77.00;;;;;;4935307;29;20481;-68
2021/06/10 15:35:25;;;;;;;9.00;8.50;;;28.80;75.90;;;;;;4935333;29;20493;-70
2021/06/10 15:37:52;;;;;;;7.23;6.93;;;28.90;75.80;;;;;;4935545;29;20469;-70
2021/06/10 15:40:19;;;;;;;8.27;7.77;;;29.00;75.40;;;;;;4934509;29;20538;-69
2021/06/10 15:42:45;;;;;;;7.67;7.37;;;29.10;75.30;;;;;;4935361;29;20488;-69
2021/06/10 15:45:12;;;;;;;7.70;7.30;;;29.10;73.70;;;;;;4934930;29;20476;-69
2021/06/10 15:47:38;;;;;;;8.87;8.37;;;29.00;72.80;;;;;;4935451;29;20976;-69
2021/06/10 15:50:06;;;;;;;7.90;7.40;;;29.00;73.40;;;;;;4935462;29;20480;-70
2021/06/10 15:52:32;;;;;;;8.47;8.07;;;29.00;74.90;;;;;;4935443;29;20466;-70
2021/06/10 15:55:00;;;;;;;9.50;8.83;;;28.90;75.20;;;;;;4934807;29;20979;-69
2021/06/10 15:57:26;;;;;;;8.13;7.60;;;28.80;74.80;;;;;;4935697;29;20461;-69
2021/06/10 15:59:53;;;;;;;8.80;8.37;;;28.80;75.90;;;;;;4934820;29;20474;-69
2021/06/10 16:02:19;;;;;;;9.23;8.73;;;28.70;75.20;;;;;;4934979;29;21002;-70
2021/06/10 16:04:45;;;;;;;7.60;7.30;;;28.70;75.30;;;;;;4935308;29;20579;-68
2021/06/10 16:07:11;;;;;;;9.23;8.70;;;28.70;76.50;;;;;;4935417;29;20462;-70
2021/06/10 16:09:38;;;;;;;9.33;8.60;;;28.70;75.10;;;;;;4934745;29;20826;-70
2021/06/10 16:12:06;;;;;;;8.33;7.93;;;28.60;75.20;;;;;;4935526;29;20489;-69
2021/06/10 16:14:32;;;;;;;9.23;8.73;;;28.60;76.40;;;;;;4935126;29;20466;-70
2021/06/10 16:16:59;;;;;;;9.10;8.50;;;28.50;74.80;;;;;;4935196;29;20535;-69
2021/06/10 16:19:25;;;;;;;9.73;9.13;;;28.60;75.10;;;;;;4935627;29;20470;-70
2021/06/10 16:21:52;;;;;;;8.10;7.50;;;28.50;74.40;;;;;;4935140;29;20493;-68
2021/06/10 16:24:19;;;;;;;8.63;8.07;;;28.50;75.90;;;;;;4934248;29;20519;-67
2021/06/10 16:26:45;;;;;;;9.20;8.70;;;28.50;75.30;;;;;;4935105;29;20573;-67
2021/06/10 16:29:13;;;;;;;8.70;8.33;;;28.50;76.40;;;;;;4933006;29;20954;-67
2021/06/10 16:31:39;;;;;;;8.23;7.83;;;28.20;76.10;;;;;;4938379;29;20490;-71
2021/06/10 16:34:06;;;;;;;9.80;9.20;;;28.20;77.40;;;;;;4938399;29;20509;-69
2021/06/10 16:36:33;;;;;;;9.17;8.47;;;28.30;76.50;;;;;;4938348;29;20496;-70
2021/06/10 16:39:00;;;;;;;8.43;8.13;;;28.40;77.10;;;;;;4939020;29;20525;-71
2021/06/10 16:41:26;;;;;;;8.37;7.87;;;28.40;76.50;;;;;;4938507;29;20922;-71
2021/06/10 16:43:54;;;;;;;7.80;7.50;;;28.40;77.50;;;;;;4939148;29;20481;-70
2021/06/10 16:46:22;;;;;;;8.73;8.03;;;28.20;78.40;;;;;;4940946;29;20470;-72
2021/06/10 16:48:48;;;;;;;7.57;7.27;;;28.20;78.00;;;;;;4941009;29;20476;-72
2021/06/10 16:51:15;;;;;;;10.67;9.73;;;28.20;77.20;;;;;;4940182;29;20488;-71